createdAt,value
2022-12-11T00:02:22.085Z,13.35
2022-12-11T00:04:48.860Z,13.00
2022-12-11T00:07:15.624Z,12.60
2022-12-11T00:09:42.421Z,13.82
2022-12-11T00:12:09.202Z,12.90
2022-12-11T00:14:36.201Z,12.10
2022-12-11T00:17:04.665Z,13.10
2022-12-11T00:19:32.104Z,13.38
2022-12-11T00:21:58.890Z,12.18
2022-12-11T00:24:27.489Z,15.40
2022-12-11T00:26:54.236Z,15.02
2022-12-11T00:29:20.949Z,14.85
2022-12-11T00:31:47.731Z,14.63
2022-12-11T00:34:14.466Z,13.73
2022-12-11T00:36:41.262Z,14.95
2022-12-11T00:39:08.205Z,14.60
2022-12-11T00:41:34.964Z,14.70
2022-12-11T00:44:01.915Z,15.20
2022-12-11T00:46:28.709Z,14.45
2022-12-11T00:48:55.511Z,13.52
2022-12-11T00:51:22.317Z,14.60
2022-12-11T00:53:49.073Z,14.98
2022-12-11T00:56:21.880Z,14.27
2022-12-11T00:58:49.522Z,15.82
2022-12-11T01:01:26.945Z,14.23
2022-12-11T01:03:54.605Z,15.02
2022-12-11T01:06:24.348Z,13.40
2022-12-11T01:09:10.647Z,13.95
2022-12-11T01:11:37.772Z,12.95
2022-12-11T01:14:04.768Z,12.73
2022-12-11T01:16:31.678Z,14.98
2022-12-11T01:18:59.329Z,13.35
2022-12-11T01:21:28.078Z,14.15
2022-12-11T01:23:54.811Z,14.80
2022-12-11T01:26:22.451Z,14.18
2022-12-11T01:28:52.661Z,13.07
2022-12-11T01:31:22.303Z,14.80
2022-12-11T01:33:49.427Z,15.48
2022-12-11T01:36:19.007Z,13.07
2022-12-11T01:38:47.652Z,14.15
2022-12-11T01:41:15.106Z,14.10
2022-12-11T01:44:02.912Z,14.25
2022-12-11T01:46:32.460Z,15.80
2022-12-11T01:49:01.638Z,13.68
2022-12-11T01:51:33.797Z,14.25
2022-12-11T01:54:07.003Z,13.85
2022-12-11T01:56:38.127Z,14.65
2022-12-11T01:59:07.575Z,14.57
2022-12-11T02:02:15.111Z,14.15
2022-12-11T02:04:44.142Z,13.50
2022-12-11T02:07:11.453Z,14.38
2022-12-11T02:09:41.453Z,13.38
2022-12-11T02:12:36.817Z,15.60
2022-12-11T02:15:19.201Z,15.82
2022-12-11T02:18:01.120Z,15.00
2022-12-11T02:20:49.036Z,15.73
2022-12-11T02:23:18.853Z,15.48
2022-12-11T02:26:08.556Z,14.38
2022-12-11T02:28:44.141Z,13.95
2022-12-11T02:31:24.018Z,15.13
2022-12-11T02:34:12.504Z,15.02
2022-12-11T02:36:43.587Z,14.77
2022-12-11T02:39:13.651Z,13.63
2022-12-11T02:41:46.751Z,15.05
2022-12-11T02:44:16.256Z,15.13
2022-12-11T02:46:44.689Z,14.73
2022-12-11T02:49:13.833Z,15.38
2022-12-11T02:51:42.475Z,15.95
2022-12-11T02:54:13.936Z,16.50
2022-12-11T02:56:47.907Z,14.50
2022-12-11T02:59:41.382Z,15.48
2022-12-11T03:02:08.417Z,15.82
2022-12-11T03:04:36.627Z,15.75
2022-12-11T03:07:12.338Z,15.82
2022-12-11T03:09:41.032Z,15.70
2022-12-11T03:12:10.914Z,16.20
2022-12-11T03:14:38.652Z,16.40
2022-12-11T03:17:19.251Z,15.30
2022-12-11T03:20:08.462Z,16.05
2022-12-11T03:22:42.920Z,15.07
2022-12-11T03:25:26.038Z,15.18
2022-12-11T03:28:16.364Z,16.42
2022-12-11T03:30:45.435Z,16.08
2022-12-11T03:33:18.259Z,15.30
2022-12-11T03:35:51.624Z,15.30
2022-12-11T03:41:02.596Z,17.20
2022-12-11T03:43:32.113Z,16.98
2022-12-11T03:46:00.778Z,15.88
2022-12-11T03:48:33.539Z,16.83
2022-12-11T03:51:03.869Z,16.67
2022-12-11T03:53:31.366Z,16.98
2022-12-11T03:55:59.305Z,17.98
2022-12-11T03:58:26.238Z,16.45
2022-12-11T04:00:53.127Z,17.02
2022-12-11T04:03:19.979Z,18.00
2022-12-11T04:05:49.642Z,19.55
2022-12-11T04:08:17.591Z,19.23
2022-12-11T04:10:45.049Z,17.75
2022-12-11T04:13:12.230Z,18.90
2022-12-11T04:15:39.470Z,19.02
2022-12-11T04:18:26.496Z,17.48
2022-12-11T04:21:15.343Z,18.88
2022-12-11T04:24:00.858Z,19.65
2022-12-11T04:26:28.323Z,18.55
2022-12-11T04:28:55.066Z,18.48
2022-12-11T04:31:23.250Z,19.35
2022-12-11T04:33:50.313Z,18.50
2022-12-11T04:36:17.259Z,18.30
2022-12-11T04:38:44.019Z,19.25
2022-12-11T04:41:13.173Z,18.92
2022-12-11T04:43:40.565Z,18.58
2022-12-11T04:46:10.837Z,19.67
2022-12-11T04:48:39.082Z,18.77
2022-12-11T04:51:06.891Z,18.17
2022-12-11T04:53:34.101Z,19.25
2022-12-11T04:56:00.834Z,18.65
2022-12-11T04:58:28.366Z,18.42
2022-12-11T05:00:55.086Z,18.35
2022-12-11T05:03:21.801Z,18.13
2022-12-11T05:05:53.611Z,18.33
2022-12-11T05:08:23.369Z,17.40
2022-12-11T05:11:05.555Z,17.50
2022-12-11T05:13:34.164Z,16.55
2022-12-11T05:16:03.254Z,18.55
2022-12-11T05:18:30.010Z,17.38
2022-12-11T05:20:57.309Z,15.45
2022-12-11T05:23:24.256Z,15.18
2022-12-11T05:25:56.064Z,17.00
2022-12-11T05:28:24.930Z,16.92
2022-12-11T05:31:03.228Z,16.60
2022-12-11T05:33:30.195Z,15.88
2022-12-11T05:35:57.981Z,16.52
2022-12-11T05:38:25.447Z,17.25
2022-12-11T05:41:09.117Z,16.20
2022-12-11T05:43:37.159Z,16.52
2022-12-11T05:46:11.444Z,15.00
2022-12-11T05:48:38.829Z,15.40
2022-12-11T05:51:08.480Z,15.68
2022-12-11T05:53:36.999Z,16.85
2022-12-11T05:56:15.778Z,16.38
2022-12-11T05:58:43.913Z,15.73
2022-12-11T06:01:16.223Z,16.35
2022-12-11T06:03:43.064Z,14.95
2022-12-11T06:06:10.002Z,16.83
2022-12-11T06:08:36.925Z,16.67
2022-12-11T06:11:04.359Z,16.58
2022-12-11T06:13:31.215Z,16.63
2022-12-11T06:16:05.750Z,16.40
2022-12-11T06:18:37.899Z,17.25
2022-12-11T06:21:13.494Z,16.08
2022-12-11T06:23:41.514Z,16.75
2022-12-11T06:26:09.317Z,16.75
2022-12-11T06:28:36.204Z,15.77
2022-12-11T06:31:03.465Z,18.15
2022-12-11T06:33:30.913Z,16.10
2022-12-11T06:36:01.599Z,17.23
2022-12-11T06:38:28.310Z,17.45
2022-12-11T06:41:04.734Z,19.13
2022-12-11T06:43:32.752Z,17.80
2022-12-11T06:46:03.785Z,16.90
2022-12-11T06:48:31.176Z,16.83
2022-12-11T06:50:58.015Z,17.65
2022-12-11T06:53:24.687Z,17.08
2022-12-11T06:55:51.393Z,16.67
2022-12-11T06:58:18.125Z,16.58
2022-12-11T07:00:44.911Z,16.83
2022-12-11T07:03:13.702Z,14.82
2022-12-11T07:05:40.598Z,16.15
2022-12-11T07:08:07.655Z,17.42
2022-12-11T07:10:34.422Z,16.15
2022-12-11T07:13:01.210Z,16.08
2022-12-11T07:15:27.977Z,14.63
2022-12-11T07:17:54.812Z,15.93
2022-12-11T07:20:21.716Z,15.57
2022-12-11T07:22:48.443Z,15.38
2022-12-11T07:25:15.402Z,13.85
2022-12-11T07:27:42.170Z,14.30
2022-12-11T07:30:09.747Z,14.93
2022-12-11T07:32:36.588Z,13.18
2022-12-11T07:35:04.046Z,12.50
2022-12-11T07:37:31.155Z,12.48
2022-12-11T07:39:57.901Z,11.95
2022-12-11T07:42:24.585Z,13.07
2022-12-11T07:44:51.338Z,11.13
2022-12-11T07:47:18.085Z,12.25
2022-12-11T07:49:49.272Z,12.63
2022-12-11T07:52:16.019Z,12.20
2022-12-11T07:54:42.821Z,13.13
2022-12-11T07:57:13.875Z,14.07
2022-12-11T07:59:41.934Z,13.65
2022-12-11T08:02:11.894Z,14.75
2022-12-11T08:04:38.984Z,14.30
2022-12-11T08:07:07.955Z,13.82
2022-12-11T08:09:35.019Z,13.85
2022-12-11T08:12:01.915Z,14.20
2022-12-11T08:14:28.665Z,13.50
2022-12-11T08:16:57.477Z,14.35
2022-12-11T08:19:24.381Z,12.98
2022-12-11T08:21:51.091Z,11.30
2022-12-11T08:24:21.001Z,11.70
2022-12-11T08:26:48.546Z,10.77
2022-12-11T08:29:15.437Z,11.70
2022-12-11T08:31:42.756Z,10.75
2022-12-11T08:34:13.776Z,11.82
2022-12-11T08:36:41.492Z,10.27
2022-12-11T08:39:08.361Z,11.05
2022-12-11T08:41:35.171Z,11.32
2022-12-11T08:44:01.941Z,10.77
2022-12-11T08:46:30.811Z,12.60
2022-12-11T08:48:58.394Z,11.38
2022-12-11T08:51:27.387Z,11.05
2022-12-11T08:53:58.997Z,11.20
2022-12-11T08:56:26.645Z,11.07
2022-12-11T08:58:53.993Z,11.00
2022-12-11T09:01:25.985Z,11.75
2022-12-11T09:03:54.535Z,10.88
2022-12-11T09:06:24.250Z,12.07
2022-12-11T09:08:53.504Z,11.20
2022-12-11T09:11:25.888Z,11.70
2022-12-11T09:13:53.171Z,12.23
2022-12-11T09:16:21.907Z,12.27
2022-12-11T09:18:50.461Z,11.55
2022-12-11T09:21:20.296Z,10.95
2022-12-11T09:23:47.301Z,11.65
2022-12-11T09:26:18.013Z,11.50
2022-12-11T09:28:46.865Z,12.02
2022-12-11T09:31:17.839Z,11.40
2022-12-11T09:33:44.942Z,11.90
2022-12-11T09:36:12.562Z,10.73
2022-12-11T09:38:39.723Z,11.25
2022-12-11T09:41:21.735Z,11.98
2022-12-11T09:44:00.359Z,10.82
2022-12-11T09:46:33.584Z,10.60
2022-12-11T09:49:02.857Z,11.30
2022-12-11T09:51:43.797Z,10.90
2022-12-11T09:54:14.260Z,11.35
2022-12-11T09:56:50.719Z,12.23
2022-12-11T09:59:29.106Z,12.18
2022-12-11T10:02:38.258Z,11.55
2022-12-11T10:05:40.313Z,12.68
2022-12-11T10:08:17.522Z,11.95
2022-12-11T10:11:01.476Z,12.90
2022-12-11T10:14:00.468Z,12.45
2022-12-11T10:16:39.900Z,12.27
2022-12-11T10:19:13.481Z,11.35
2022-12-11T10:21:42.543Z,13.35
2022-12-11T10:27:31.477Z,11.73
2022-12-11T10:30:13.355Z,12.00
2022-12-11T10:32:55.268Z,12.23
2022-12-11T10:35:37.014Z,12.57
2022-12-11T10:38:15.338Z,11.95
2022-12-11T10:40:45.565Z,13.00
2022-12-11T10:43:12.745Z,12.00
2022-12-11T10:45:39.792Z,12.25
2022-12-11T10:48:11.645Z,12.18
2022-12-11T10:50:39.072Z,11.43
2022-12-11T10:53:06.259Z,12.13
2022-12-11T10:55:45.632Z,12.02
2022-12-11T10:58:22.444Z,12.27
2022-12-11T11:01:19.799Z,11.75
2022-12-11T11:04:24.157Z,11.32
2022-12-11T11:07:11.133Z,12.60
2022-12-11T11:09:39.849Z,12.23
2022-12-11T11:12:17.789Z,12.27
2022-12-11T11:14:44.496Z,12.30
2022-12-11T11:17:15.742Z,12.55
2022-12-11T11:19:46.065Z,13.23
2022-12-11T11:22:19.574Z,12.68
2022-12-11T11:24:53.996Z,13.45
2022-12-11T11:27:29.630Z,11.88
2022-12-11T11:30:00.526Z,12.35
2022-12-11T11:32:32.183Z,12.73
2022-12-11T11:35:14.258Z,13.07
2022-12-11T11:37:47.160Z,12.52
2022-12-11T11:40:24.404Z,12.50
2022-12-11T11:43:32.019Z,12.18
2022-12-11T11:46:11.244Z,11.52
2022-12-11T11:48:49.985Z,10.43
2022-12-11T11:51:27.181Z,12.23
2022-12-11T11:53:58.404Z,10.85
2022-12-11T11:56:43.804Z,11.35
2022-12-11T11:59:35.098Z,10.98
2022-12-11T12:02:01.937Z,10.10
2022-12-11T12:04:34.208Z,10.90
2022-12-11T12:07:07.073Z,10.52
2022-12-11T12:09:52.518Z,11.07
2022-12-11T12:12:57.368Z,10.95
2022-12-11T12:15:51.581Z,9.73
2022-12-11T12:18:37.125Z,10.60
2022-12-11T12:21:17.234Z,9.07
2022-12-11T12:24:14.406Z,10.80
2022-12-11T12:26:53.667Z,10.10
2022-12-11T12:29:23.273Z,11.23
2022-12-11T12:32:14.166Z,10.75
2022-12-11T12:35:14.152Z,10.57
2022-12-11T12:38:16.254Z,9.07
2022-12-11T12:40:57.760Z,10.35
2022-12-11T12:43:36.580Z,9.65
2022-12-11T12:46:26.078Z,9.40
2022-12-11T12:48:55.495Z,8.85
2022-12-11T12:51:26.591Z,9.63
2022-12-11T12:54:10.523Z,7.35
2022-12-11T12:56:40.704Z,8.27
2022-12-11T12:59:26.725Z,7.72
2022-12-11T13:02:02.365Z,7.38
2022-12-11T13:04:54.887Z,7.28
2022-12-11T13:07:30.218Z,8.45
2022-12-11T13:10:44.793Z,7.38
2022-12-11T13:13:35.215Z,7.40
2022-12-11T13:16:15.296Z,6.60
2022-12-11T13:18:43.873Z,7.43
2022-12-11T13:21:41.081Z,7.53
2022-12-11T13:24:26.396Z,7.43
2022-12-11T13:26:53.634Z,6.47
2022-12-11T13:29:38.890Z,6.78
2022-12-11T13:32:11.392Z,7.03
2022-12-11T13:34:41.324Z,6.67
2022-12-11T13:37:21.996Z,6.60
2022-12-11T13:39:48.929Z,7.10
2022-12-11T13:42:33.494Z,7.65
2022-12-11T13:45:01.692Z,7.40
2022-12-11T13:47:32.189Z,7.13
2022-12-11T13:50:33.166Z,6.95
2022-12-11T13:53:01.941Z,7.30
2022-12-11T13:55:37.688Z,6.88
2022-12-11T13:58:18.322Z,7.75
2022-12-11T14:01:00.658Z,7.15
2022-12-11T14:03:27.817Z,6.93
2022-12-11T14:05:54.952Z,7.47
2022-12-11T14:08:27.363Z,7.38
2022-12-11T14:10:54.654Z,6.85
2022-12-11T14:13:31.553Z,6.85
2022-12-11T14:15:58.500Z,7.00
2022-12-11T14:18:29.401Z,7.22
2022-12-11T14:21:01.818Z,6.88
2022-12-11T14:23:38.949Z,7.37
2022-12-11T14:26:19.602Z,7.63
2022-12-11T14:28:46.658Z,7.05
2022-12-11T14:31:18.697Z,7.22
2022-12-11T14:33:52.094Z,7.00
2022-12-11T14:36:19.720Z,7.20
2022-12-11T14:39:26.145Z,6.90
2022-12-11T14:42:00.020Z,7.00
2022-12-11T14:44:30.401Z,7.20
2022-12-11T14:47:02.525Z,7.43
2022-12-11T14:49:45.755Z,7.63
2022-12-11T14:52:21.635Z,7.35
2022-12-11T14:54:58.281Z,8.40
2022-12-11T14:57:28.803Z,7.30
2022-12-11T14:59:56.464Z,8.05
2022-12-11T15:02:32.535Z,8.52
2022-12-11T15:05:06.438Z,8.50
2022-12-11T15:07:34.036Z,7.15
2022-12-11T15:10:00.877Z,7.25
2022-12-11T15:12:27.698Z,7.75
2022-12-11T15:15:00.985Z,8.35
2022-12-11T15:17:34.726Z,7.75
2022-12-11T15:20:11.641Z,7.80
2022-12-11T15:22:43.329Z,7.97
2022-12-11T15:25:19.915Z,7.97
2022-12-11T15:27:49.951Z,8.23
2022-12-11T15:30:20.351Z,8.18
2022-12-11T15:32:49.411Z,7.93
2022-12-11T15:35:25.550Z,8.07
2022-12-11T15:37:57.553Z,8.45
2022-12-11T15:40:25.221Z,7.85
2022-12-11T15:42:52.896Z,7.68
2022-12-11T15:45:22.071Z,8.50
2022-12-11T15:47:50.101Z,7.55
2022-12-11T15:50:21.863Z,7.70
2022-12-11T15:52:49.475Z,8.07
2022-12-11T15:55:16.890Z,7.28
2022-12-11T15:57:47.847Z,7.78
2022-12-11T16:00:20.853Z,7.15
2022-12-11T16:02:48.304Z,8.43
2022-12-11T16:05:15.964Z,7.15
2022-12-11T16:07:43.082Z,7.85
2022-12-11T16:10:17.632Z,8.82
2022-12-11T16:12:47.703Z,7.43
2022-12-11T16:15:21.692Z,7.28
2022-12-11T16:17:50.111Z,7.55
2022-12-11T16:20:17.673Z,8.15
2022-12-11T16:22:44.744Z,6.70
2022-12-11T16:25:11.910Z,7.82
2022-12-11T16:27:39.656Z,7.32
2022-12-11T16:30:07.017Z,7.57
2022-12-11T16:32:33.831Z,7.45
2022-12-11T16:35:01.252Z,8.25
2022-12-11T16:37:28.296Z,8.02
2022-12-11T16:39:55.184Z,8.50
2022-12-11T16:42:22.010Z,7.90
2022-12-11T16:44:49.226Z,8.13
2022-12-11T16:47:16.392Z,7.93
2022-12-11T16:49:43.571Z,7.30
2022-12-11T16:52:11.649Z,7.63
2022-12-11T16:54:40.538Z,7.55
2022-12-11T16:57:07.414Z,7.28
2022-12-11T16:59:37.426Z,7.38
2022-12-11T17:02:04.747Z,8.27
2022-12-11T17:04:31.510Z,10.20
2022-12-11T17:06:58.488Z,8.10
2022-12-11T17:09:25.658Z,7.90
2022-12-11T17:11:53.512Z,7.50
2022-12-11T17:14:20.506Z,9.68
2022-12-11T17:16:48.760Z,9.43
2022-12-11T17:19:16.515Z,10.68
2022-12-11T17:21:47.087Z,7.15
2022-12-11T17:24:18.541Z,7.93
2022-12-11T17:26:45.368Z,7.68
2022-12-11T17:29:13.051Z,7.50
2022-12-11T17:31:39.764Z,7.85
2022-12-11T17:34:06.601Z,7.85
2022-12-11T17:36:33.733Z,8.18
2022-12-11T17:39:00.587Z,8.30
2022-12-11T17:41:27.429Z,7.75
2022-12-11T17:43:56.577Z,8.40
2022-12-11T17:46:23.414Z,9.32
2022-12-11T17:48:50.518Z,8.75
2022-12-11T17:51:22.073Z,8.35
2022-12-11T17:53:49.259Z,8.93
2022-12-11T17:56:16.777Z,8.35
2022-12-11T17:58:43.932Z,8.57
2022-12-11T18:01:13.282Z,8.77
2022-12-11T18:03:41.092Z,7.78
2022-12-11T18:06:11.044Z,9.43
2022-12-11T18:08:38.096Z,8.00
2022-12-11T18:11:13.737Z,8.70
2022-12-11T18:13:41.428Z,8.95
2022-12-11T18:16:17.454Z,7.68
2022-12-11T18:18:46.373Z,7.95
2022-12-11T18:21:15.756Z,8.32
2022-12-11T18:23:42.737Z,7.72
2022-12-11T18:26:11.024Z,8.18
2022-12-11T18:28:38.081Z,8.30
2022-12-11T18:31:05.106Z,8.05
2022-12-11T18:33:35.740Z,8.85
2022-12-11T18:36:02.917Z,8.68
2022-12-11T18:38:31.583Z,8.45
2022-12-11T18:41:04.608Z,7.85
2022-12-11T18:45:59.047Z,8.63
2022-12-11T18:48:25.889Z,7.82
2022-12-11T18:50:53.159Z,7.85
2022-12-11T18:53:20.280Z,8.80
2022-12-11T18:55:48.589Z,7.75
2022-12-11T18:58:17.668Z,8.73
2022-12-11T19:00:46.183Z,8.02
2022-12-11T19:03:14.137Z,8.15
2022-12-11T19:05:42.788Z,7.57
2022-12-11T19:08:11.925Z,8.00
2022-12-11T19:10:46.654Z,7.55
2022-12-11T19:13:14.577Z,7.82
2022-12-11T19:15:42.805Z,7.97
2022-12-11T19:18:10.763Z,8.18
2022-12-11T19:20:56.725Z,8.40
2022-12-11T19:23:25.244Z,7.88
2022-12-11T19:25:52.066Z,7.68
2022-12-11T19:28:18.970Z,8.43
2022-12-11T19:30:48.795Z,7.90
2022-12-11T19:33:16.609Z,8.25
2022-12-11T19:35:44.591Z,8.50
2022-12-11T19:38:13.048Z,8.52
2022-12-11T19:40:45.277Z,8.93
2022-12-11T19:43:12.216Z,8.45
2022-12-11T19:45:41.851Z,9.43
2022-12-11T19:48:08.701Z,8.38
2022-12-11T19:50:36.573Z,8.73
2022-12-11T19:53:03.823Z,8.52
2022-12-11T19:55:30.646Z,8.88
2022-12-11T19:57:57.729Z,8.35
2022-12-11T20:00:26.213Z,7.78
2022-12-11T20:02:53.059Z,8.43
2022-12-11T20:05:20.094Z,9.27
2022-12-11T20:07:47.040Z,8.52
2022-12-11T20:10:14.112Z,8.98
2022-12-11T20:12:40.997Z,10.13
2022-12-11T20:15:08.155Z,9.07
2022-12-11T20:17:36.916Z,8.35
2022-12-11T20:20:04.361Z,8.65
2022-12-11T20:22:31.365Z,9.32
2022-12-11T20:24:58.401Z,10.18
2022-12-11T20:27:26.331Z,9.43
2022-12-11T20:29:53.541Z,9.93
2022-12-11T20:32:20.309Z,10.55
2022-12-11T20:34:47.220Z,10.18
2022-12-11T20:37:13.950Z,9.55
2022-12-11T20:39:40.757Z,10.23
2022-12-11T20:42:10.300Z,9.93
2022-12-11T20:44:37.386Z,10.10
2022-12-11T20:47:04.546Z,9.85
2022-12-11T20:49:31.715Z,10.15
2022-12-11T20:51:59.924Z,10.30
2022-12-11T20:54:27.196Z,11.52
2022-12-11T20:56:55.165Z,10.80
2022-12-11T20:59:22.367Z,9.77
2022-12-11T21:01:49.618Z,10.60
2022-12-11T21:04:16.731Z,9.20
2022-12-11T21:06:44.018Z,11.43
2022-12-11T21:09:14.752Z,10.63
2022-12-11T21:11:41.766Z,10.48
2022-12-11T21:14:08.588Z,10.48
2022-12-11T21:16:37.135Z,11.60
2022-12-11T21:19:05.903Z,11.05
2022-12-11T21:21:34.558Z,11.80
2022-12-11T21:24:01.445Z,11.13
2022-12-11T21:26:30.269Z,10.43
2022-12-11T21:28:57.025Z,11.02
2022-12-11T21:31:23.807Z,11.32
2022-12-11T21:33:50.865Z,11.75
2022-12-11T21:36:18.145Z,10.65
2022-12-11T21:38:46.382Z,11.30
2022-12-11T21:41:16.454Z,10.70
2022-12-11T21:44:32.933Z,10.50
2022-12-11T21:46:31.147Z,9.98
2022-12-11T21:49:00.196Z,10.35
2022-12-11T21:51:36.213Z,10.20
2022-12-11T21:54:06.831Z,10.65
2022-12-11T21:56:34.441Z,12.40
2022-12-11T21:59:01.931Z,11.50
2022-12-11T22:01:33.481Z,11.93
2022-12-11T22:04:01.056Z,11.20
2022-12-11T22:06:31.634Z,11.77
2022-12-11T22:08:58.530Z,11.65
2022-12-11T22:11:28.351Z,11.98
2022-12-11T22:13:55.476Z,10.82
2022-12-11T22:16:22.527Z,11.05
2022-12-11T22:18:49.476Z,10.88
2022-12-11T22:21:16.441Z,11.88
2022-12-11T22:23:44.716Z,11.30
2022-12-11T22:26:24.139Z,12.70
2022-12-11T22:28:51.888Z,10.70
2022-12-11T22:31:20.728Z,11.48
2022-12-11T22:33:53.894Z,11.30
2022-12-11T22:36:21.355Z,11.53
2022-12-11T22:38:48.446Z,12.05
2022-12-11T22:41:41.898Z,11.35
2022-12-11T22:44:14.945Z,12.70
2022-12-11T22:46:45.430Z,11.35
2022-12-11T22:49:21.444Z,12.27
2022-12-11T22:51:50.876Z,12.25
2022-12-11T22:54:24.453Z,12.25
2022-12-11T22:56:52.463Z,11.82
2022-12-11T22:59:19.266Z,11.27
2022-12-11T23:01:46.245Z,11.00
2022-12-11T23:04:13.161Z,11.93
2022-12-11T23:06:40.153Z,11.93
2022-12-11T23:09:09.911Z,11.38
2022-12-11T23:11:38.735Z,11.40
2022-12-11T23:14:09.048Z,10.82
2022-12-11T23:16:37.056Z,11.18
2022-12-11T23:19:04.737Z,11.15
2022-12-11T23:21:32.025Z,10.88
2022-12-11T23:24:01.688Z,11.23
2022-12-11T23:26:30.006Z,9.35
2022-12-11T23:28:58.447Z,10.00
2022-12-11T23:31:26.718Z,10.05
2022-12-11T23:33:54.718Z,9.65
2022-12-11T23:36:22.011Z,9.98
2022-12-11T23:38:54.617Z,9.35
2022-12-11T23:41:22.452Z,9.15
2022-12-11T23:43:49.247Z,9.25
2022-12-11T23:46:19.124Z,9.20
2022-12-11T23:48:48.678Z,9.70
2022-12-11T23:51:17.782Z,9.27
2022-12-11T23:53:44.938Z,8.52
2022-12-11T23:56:15.714Z,10.02
2022-12-11T23:58:42.684Z,10.35
